sensor_id;sensor_type;location;lat;lon;timestamp;temperature;humidity
24645;DHT22;12780;45.502;9.146;2022-08-26T00:00:50;26.30;99.90
24645;DHT22;12780;45.502;9.146;2022-08-26T00:03:17;26.20;99.90
24645;DHT22;12780;45.502;9.146;2022-08-26T00:05:44;26.20;99.90
24645;DHT22;12780;45.502;9.146;2022-08-26T00:08:11;26.20;99.90
24645;DHT22;12780;45.502;9.146;2022-08-26T00:10:37;26.20;99.90
24645;DHT22;12780;45.502;9.146;2022-08-26T00:13:03;26.20;99.90
24645;DHT22;12780;45.502;9.146;2022-08-26T00:15:29;26.20;99.90
24645;DHT22;12780;45.502;9.146;2022-08-26T00:17:55;26.10;99.90
24645;DHT22;12780;45.502;9.146;2022-08-26T00:20:24;26.10;99.90
24645;DHT22;12780;45.502;9.146;2022-08-26T00:22:50;26.10;99.90
24645;DHT22;12780;45.502;9.146;2022-08-26T00:25:16;26.10;99.90
24645;DHT22;12780;45.502;9.146;2022-08-26T00:27:42;26.10;99.90
24645;DHT22;12780;45.502;9.146;2022-08-26T00:30:11;26.00;99.90
24645;DHT22;12780;45.502;9.146;2022-08-26T00:32:38;26.00;99.90
24645;DHT22;12780;45.502;9.146;2022-08-26T00:35:04;26.00;99.90
24645;DHT22;12780;45.502;9.146;2022-08-26T00:37:30;26.00;99.90
24645;DHT22;12780;45.502;9.146;2022-08-26T00:39:56;25.90;99.90
24645;DHT22;12780;45.502;9.146;2022-08-26T00:42:22;26.00;99.90
24645;DHT22;12780;45.502;9.146;2022-08-26T00:44:48;25.90;99.90
24645;DHT22;12780;45.502;9.146;2022-08-26T00:47:27;25.90;99.90
24645;DHT22;12780;45.502;9.146;2022-08-26T00:49:54;25.90;99.90
24645;DHT22;12780;45.502;9.146;2022-08-26T00:52:21;25.90;99.90
24645;DHT22;12780;45.502;9.146;2022-08-26T00:54:52;25.90;99.90
24645;DHT22;12780;45.502;9.146;2022-08-26T00:57:20;25.90;99.90
24645;DHT22;12780;45.502;9.146;2022-08-26T00:59:50;25.90;99.90
24645;DHT22;12780;45.502;9.146;2022-08-26T01:02:17;25.90;99.90
24645;DHT22;12780;45.502;9.146;2022-08-26T01:04:43;25.90;99.90
24645;DHT22;12780;45.502;9.146;2022-08-26T01:07:08;25.90;99.90
24645;DHT22;12780;45.502;9.146;2022-08-26T01:09:34;25.90;99.90
24645;DHT22;12780;45.502;9.146;2022-08-26T01:12:01;25.80;99.90
24645;DHT22;12780;45.502;9.146;2022-08-26T01:14:31;25.80;99.90
24645;DHT22;12780;45.502;9.146;2022-08-26T01:16:57;25.80;99.90
24645;DHT22;12780;45.502;9.146;2022-08-26T01:19:49;25.80;99.90
24645;DHT22;12780;45.502;9.146;2022-08-26T01:22:17;25.80;99.90
24645;DHT22;12780;45.502;9.146;2022-08-26T01:24:44;25.80;99.90
24645;DHT22;12780;45.502;9.146;2022-08-26T01:27:12;25.80;99.90
24645;DHT22;12780;45.502;9.146;2022-08-26T01:29:43;25.70;99.90
24645;DHT22;12780;45.502;9.146;2022-08-26T01:32:10;25.70;99.90
24645;DHT22;12780;45.502;9.146;2022-08-26T01:34:39;25.70;99.90
24645;DHT22;12780;45.502;9.146;2022-08-26T01:37:12;25.70;99.90
24645;DHT22;12780;45.502;9.146;2022-08-26T01:39:38;25.70;99.90
24645;DHT22;12780;45.502;9.146;2022-08-26T01:42:08;25.60;99.90
24645;DHT22;12780;45.502;9.146;2022-08-26T01:44:40;25.60;99.90
24645;DHT22;12780;45.502;9.146;2022-08-26T01:47:07;25.60;99.90
24645;DHT22;12780;45.502;9.146;2022-08-26T01:49:35;25.60;99.90
24645;DHT22;12780;45.502;9.146;2022-08-26T01:52:03;25.60;99.90
24645;DHT22;12780;45.502;9.146;2022-08-26T01:54:29;25.60;99.90
24645;DHT22;12780;45.502;9.146;2022-08-26T01:56:55;25.60;99.90
24645;DHT22;12780;45.502;9.146;2022-08-26T01:59:22;25.60;99.90
24645;DHT22;12780;45.502;9.146;2022-08-26T02:01:49;25.60;99.90
24645;DHT22;12780;45.502;9.146;2022-08-26T02:04:28;25.70;99.90
24645;DHT22;12780;45.502;9.146;2022-08-26T02:06:55;25.70;99.90
24645;DHT22;12780;45.502;9.146;2022-08-26T02:09:22;25.60;99.90
24645;DHT22;12780;45.502;9.146;2022-08-26T02:11:48;25.70;99.90
24645;DHT22;12780;45.502;9.146;2022-08-26T02:14:19;25.60;99.90
24645;DHT22;12780;45.502;9.146;2022-08-26T02:16:48;25.70;99.90
24645;DHT22;12780;45.502;9.146;2022-08-26T02:19:18;25.70;99.90
24645;DHT22;12780;45.502;9.146;2022-08-26T02:21:46;25.70;99.90
24645;DHT22;12780;45.502;9.146;2022-08-26T02:24:16;25.60;99.90
24645;DHT22;12780;45.502;9.146;2022-08-26T02:26:44;25.60;99.90
24645;DHT22;12780;45.502;9.146;2022-08-26T02:29:33;25.60;99.90
24645;DHT22;12780;45.502;9.146;2022-08-26T02:31:59;25.60;99.90
24645;DHT22;12780;45.502;9.146;2022-08-26T02:34:28;25.50;99.90
24645;DHT22;12780;45.502;9.146;2022-08-26T02:36:55;25.50;99.90
24645;DHT22;12780;45.502;9.146;2022-08-26T02:39:21;25.50;99.90
24645;DHT22;12780;45.502;9.146;2022-08-26T02:41:47;25.50;99.90
24645;DHT22;12780;45.502;9.146;2022-08-26T02:44:13;25.50;99.90
24645;DHT22;12780;45.502;9.146;2022-08-26T02:46:39;25.50;99.90
24645;DHT22;12780;45.502;9.146;2022-08-26T02:49:04;25.50;99.90
24645;DHT22;12780;45.502;9.146;2022-08-26T02:51:30;25.50;99.90
24645;DHT22;12780;45.502;9.146;2022-08-26T02:53:56;25.50;99.90
24645;DHT22;12780;45.502;9.146;2022-08-26T02:56:22;25.50;99.90
24645;DHT22;12780;45.502;9.146;2022-08-26T02:58:47;25.40;99.90
24645;DHT22;12780;45.502;9.146;2022-08-26T03:01:32;25.40;99.90
24645;DHT22;12780;45.502;9.146;2022-08-26T03:03:59;25.40;99.90
24645;DHT22;12780;45.502;9.146;2022-08-26T03:06:25;25.40;99.90
24645;DHT22;12780;45.502;9.146;2022-08-26T03:08:51;25.40;99.90
24645;DHT22;12780;45.502;9.146;2022-08-26T03:11:17;25.40;99.90
24645;DHT22;12780;45.502;9.146;2022-08-26T03:13:43;25.40;99.90
24645;DHT22;12780;45.502;9.146;2022-08-26T03:16:10;25.30;99.90
24645;DHT22;12780;45.502;9.146;2022-08-26T03:18:35;25.40;99.90
24645;DHT22;12780;45.502;9.146;2022-08-26T03:21:09;25.30;99.90
24645;DHT22;12780;45.502;9.146;2022-08-26T03:23:36;25.40;99.90
24645;DHT22;12780;45.502;9.146;2022-08-26T03:26:03;25.30;99.90
24645;DHT22;12780;45.502;9.146;2022-08-26T03:28:30;25.30;99.90
24645;DHT22;12780;45.502;9.146;2022-08-26T03:30:56;25.30;99.90
24645;DHT22;12780;45.502;9.146;2022-08-26T03:33:23;25.30;99.90
24645;DHT22;12780;45.502;9.146;2022-08-26T03:35:49;25.20;99.90
24645;DHT22;12780;45.502;9.146;2022-08-26T03:38:17;25.20;99.90
24645;DHT22;12780;45.502;9.146;2022-08-26T03:40:43;25.20;99.90
24645;DHT22;12780;45.502;9.146;2022-08-26T03:43:09;25.20;99.90
24645;DHT22;12780;45.502;9.146;2022-08-26T03:45:36;25.20;99.90
24645;DHT22;12780;45.502;9.146;2022-08-26T03:48:01;25.10;99.90
24645;DHT22;12780;45.502;9.146;2022-08-26T03:50:27;25.00;99.90
24645;DHT22;12780;45.502;9.146;2022-08-26T03:52:54;25.00;99.90
24645;DHT22;12780;45.502;9.146;2022-08-26T03:55:23;24.90;99.90
24645;DHT22;12780;45.502;9.146;2022-08-26T03:57:49;25.00;99.90
24645;DHT22;12780;45.502;9.146;2022-08-26T04:00:16;25.00;99.90
24645;DHT22;12780;45.502;9.146;2022-08-26T04:02:43;25.00;99.90
24645;DHT22;12780;45.502;9.146;2022-08-26T04:05:14;25.00;99.90
24645;DHT22;12780;45.502;9.146;2022-08-26T04:07:41;25.00;99.90
24645;DHT22;12780;45.502;9.146;2022-08-26T04:10:13;25.00;99.90
24645;DHT22;12780;45.502;9.146;2022-08-26T04:12:40;25.00;99.90
24645;DHT22;12780;45.502;9.146;2022-08-26T04:15:12;25.00;99.90
24645;DHT22;12780;45.502;9.146;2022-08-26T04:17:38;25.00;99.90
24645;DHT22;12780;45.502;9.146;2022-08-26T04:20:05;25.00;99.90
24645;DHT22;12780;45.502;9.146;2022-08-26T04:22:30;25.00;99.90
24645;DHT22;12780;45.502;9.146;2022-08-26T04:24:56;25.00;99.90
24645;DHT22;12780;45.502;9.146;2022-08-26T04:27:22;25.00;99.90
24645;DHT22;12780;45.502;9.146;2022-08-26T04:29:48;25.00;99.90
24645;DHT22;12780;45.502;9.146;2022-08-26T04:32:14;25.00;99.90
24645;DHT22;12780;45.502;9.146;2022-08-26T04:34:40;25.00;99.90
24645;DHT22;12780;45.502;9.146;2022-08-26T04:37:06;25.00;99.90
24645;DHT22;12780;45.502;9.146;2022-08-26T04:39:32;25.00;99.90
24645;DHT22;12780;45.502;9.146;2022-08-26T04:41:58;25.00;99.90
24645;DHT22;12780;45.502;9.146;2022-08-26T04:44:26;25.00;99.90
24645;DHT22;12780;45.502;9.146;2022-08-26T04:46:52;25.00;99.90
24645;DHT22;12780;45.502;9.146;2022-08-26T04:49:19;25.00;99.90
24645;DHT22;12780;45.502;9.146;2022-08-26T04:51:45;25.00;99.90
24645;DHT22;12780;45.502;9.146;2022-08-26T04:54:11;25.00;99.90
24645;DHT22;12780;45.502;9.146;2022-08-26T04:56:40;25.00;99.90
24645;DHT22;12780;45.502;9.146;2022-08-26T04:59:08;25.00;99.90
24645;DHT22;12780;45.502;9.146;2022-08-26T05:01:34;25.00;99.90
24645;DHT22;12780;45.502;9.146;2022-08-26T05:04:00;25.00;99.90
24645;DHT22;12780;45.502;9.146;2022-08-26T05:06:27;25.00;99.90
24645;DHT22;12780;45.502;9.146;2022-08-26T05:08:53;25.00;99.90
24645;DHT22;12780;45.502;9.146;2022-08-26T05:11:19;25.00;99.90
24645;DHT22;12780;45.502;9.146;2022-08-26T05:13:46;25.00;99.90
24645;DHT22;12780;45.502;9.146;2022-08-26T05:16:13;25.00;99.90
24645;DHT22;12780;45.502;9.146;2022-08-26T05:18:41;25.00;99.90
24645;DHT22;12780;45.502;9.146;2022-08-26T05:21:14;25.00;99.90
24645;DHT22;12780;45.502;9.146;2022-08-26T05:23:40;25.10;99.90
24645;DHT22;12780;45.502;9.146;2022-08-26T05:26:07;25.10;99.90
24645;DHT22;12780;45.502;9.146;2022-08-26T05:28:33;25.10;99.90
24645;DHT22;12780;45.502;9.146;2022-08-26T05:30:59;25.20;99.90
24645;DHT22;12780;45.502;9.146;2022-08-26T05:33:24;25.20;99.90
24645;DHT22;12780;45.502;9.146;2022-08-26T05:35:50;25.20;99.90
24645;DHT22;12780;45.502;9.146;2022-08-26T05:38:18;25.20;99.90
24645;DHT22;12780;45.502;9.146;2022-08-26T05:40:50;25.20;99.90
24645;DHT22;12780;45.502;9.146;2022-08-26T05:43:16;25.20;99.90
24645;DHT22;12780;45.502;9.146;2022-08-26T05:45:45;25.20;99.90
24645;DHT22;12780;45.502;9.146;2022-08-26T05:48:19;25.20;99.90
24645;DHT22;12780;45.502;9.146;2022-08-26T05:50:48;25.30;99.90
24645;DHT22;12780;45.502;9.146;2022-08-26T05:53:16;25.30;99.90
24645;DHT22;12780;45.502;9.146;2022-08-26T05:55:44;25.30;99.90
24645;DHT22;12780;45.502;9.146;2022-08-26T05:58:11;25.30;99.90
24645;DHT22;12780;45.502;9.146;2022-08-26T06:00:38;25.40;99.90
24645;DHT22;12780;45.502;9.146;2022-08-26T06:03:03;25.40;99.90
24645;DHT22;12780;45.502;9.146;2022-08-26T06:05:29;25.40;99.90
24645;DHT22;12780;45.502;9.146;2022-08-26T06:07:55;25.40;99.90
24645;DHT22;12780;45.502;9.146;2022-08-26T06:10:43;25.40;99.90
24645;DHT22;12780;45.502;9.146;2022-08-26T06:13:09;25.50;99.90
24645;DHT22;12780;45.502;9.146;2022-08-26T06:15:45;25.50;99.90
24645;DHT22;12780;45.502;9.146;2022-08-26T06:18:11;25.50;99.90
24645;DHT22;12780;45.502;9.146;2022-08-26T06:20:39;25.50;99.90
24645;DHT22;12780;45.502;9.146;2022-08-26T06:23:10;25.50;99.90
24645;DHT22;12780;45.502;9.146;2022-08-26T06:25:54;25.50;99.90
24645;DHT22;12780;45.502;9.146;2022-08-26T06:28:20;25.50;99.90
24645;DHT22;12780;45.502;9.146;2022-08-26T06:30:46;25.50;99.90
24645;DHT22;12780;45.502;9.146;2022-08-26T06:33:11;25.50;99.90
24645;DHT22;12780;45.502;9.146;2022-08-26T06:35:39;25.60;99.90
24645;DHT22;12780;45.502;9.146;2022-08-26T06:38:06;25.60;99.90
24645;DHT22;12780;45.502;9.146;2022-08-26T06:40:33;25.70;99.90
24645;DHT22;12780;45.502;9.146;2022-08-26T06:43:04;25.70;99.90
24645;DHT22;12780;45.502;9.146;2022-08-26T06:45:30;25.80;99.90
24645;DHT22;12780;45.502;9.146;2022-08-26T06:47:55;25.90;99.90
24645;DHT22;12780;45.502;9.146;2022-08-26T06:50:21;25.90;99.90
24645;DHT22;12780;45.502;9.146;2022-08-26T06:52:47;26.00;99.90
24645;DHT22;12780;45.502;9.146;2022-08-26T06:55:13;26.10;99.90
24645;DHT22;12780;45.502;9.146;2022-08-26T06:57:39;26.10;99.90
24645;DHT22;12780;45.502;9.146;2022-08-26T07:00:05;26.20;99.90
24645;DHT22;12780;45.502;9.146;2022-08-26T07:02:37;26.20;99.90
24645;DHT22;12780;45.502;9.146;2022-08-26T07:05:04;26.30;99.90
24645;DHT22;12780;45.502;9.146;2022-08-26T07:07:30;26.30;99.90
24645;DHT22;12780;45.502;9.146;2022-08-26T07:09:55;26.40;99.90
24645;DHT22;12780;45.502;9.146;2022-08-26T07:12:21;26.50;99.90
24645;DHT22;12780;45.502;9.146;2022-08-26T07:14:47;26.60;99.90
24645;DHT22;12780;45.502;9.146;2022-08-26T07:17:13;26.70;99.90
24645;DHT22;12780;45.502;9.146;2022-08-26T07:19:39;26.70;99.90
24645;DHT22;12780;45.502;9.146;2022-08-26T07:22:05;26.80;99.90
24645;DHT22;12780;45.502;9.146;2022-08-26T07:24:32;26.90;99.90
24645;DHT22;12780;45.502;9.146;2022-08-26T07:27:00;27.00;99.90
24645;DHT22;12780;45.502;9.146;2022-08-26T07:29:25;27.10;99.90
24645;DHT22;12780;45.502;9.146;2022-08-26T07:31:51;27.20;99.90
24645;DHT22;12780;45.502;9.146;2022-08-26T07:34:17;27.30;99.90
24645;DHT22;12780;45.502;9.146;2022-08-26T07:36:43;27.40;99.90
24645;DHT22;12780;45.502;9.146;2022-08-26T07:39:09;27.50;99.90
24645;DHT22;12780;45.502;9.146;2022-08-26T07:41:34;27.60;99.90
24645;DHT22;12780;45.502;9.146;2022-08-26T07:44:00;27.70;99.90
24645;DHT22;12780;45.502;9.146;2022-08-26T07:46:26;27.80;99.90
24645;DHT22;12780;45.502;9.146;2022-08-26T07:48:52;27.90;99.90
24645;DHT22;12780;45.502;9.146;2022-08-26T07:51:19;27.90;99.90
24645;DHT22;12780;45.502;9.146;2022-08-26T07:53:46;27.90;99.90
24645;DHT22;12780;45.502;9.146;2022-08-26T07:56:12;28.00;99.90
24645;DHT22;12780;45.502;9.146;2022-08-26T07:58:37;28.00;99.90
24645;DHT22;12780;45.502;9.146;2022-08-26T08:01:04;28.00;99.90
24645;DHT22;12780;45.502;9.146;2022-08-26T08:03:29;28.00;99.90
24645;DHT22;12780;45.502;9.146;2022-08-26T08:05:55;28.00;99.90
24645;DHT22;12780;45.502;9.146;2022-08-26T08:08:21;28.00;99.90
24645;DHT22;12780;45.502;9.146;2022-08-26T08:10:47;28.00;99.90
24645;DHT22;12780;45.502;9.146;2022-08-26T08:13:13;28.10;99.90
24645;DHT22;12780;45.502;9.146;2022-08-26T08:15:39;28.10;99.90
24645;DHT22;12780;45.502;9.146;2022-08-26T08:18:05;28.10;99.90
24645;DHT22;12780;45.502;9.146;2022-08-26T08:20:32;28.10;99.90
24645;DHT22;12780;45.502;9.146;2022-08-26T08:22:58;28.10;99.90
24645;DHT22;12780;45.502;9.146;2022-08-26T08:25:24;28.10;99.90
24645;DHT22;12780;45.502;9.146;2022-08-26T08:27:50;28.20;99.90
24645;DHT22;12780;45.502;9.146;2022-08-26T08:30:18;28.30;99.90
24645;DHT22;12780;45.502;9.146;2022-08-26T08:32:45;28.40;99.90
24645;DHT22;12780;45.502;9.146;2022-08-26T08:35:13;28.40;99.90
24645;DHT22;12780;45.502;9.146;2022-08-26T08:37:39;28.50;99.90
24645;DHT22;12780;45.502;9.146;2022-08-26T08:40:06;28.50;99.90
24645;DHT22;12780;45.502;9.146;2022-08-26T08:42:56;28.60;99.90
24645;DHT22;12780;45.502;9.146;2022-08-26T08:45:41;28.60;99.90
24645;DHT22;12780;45.502;9.146;2022-08-26T08:48:19;28.70;99.90
24645;DHT22;12780;45.502;9.146;2022-08-26T08:50:52;28.80;99.90
24645;DHT22;12780;45.502;9.146;2022-08-26T08:53:40;28.90;99.90
24645;DHT22;12780;45.502;9.146;2022-08-26T08:59:10;29.00;99.90
24645;DHT22;12780;45.502;9.146;2022-08-26T09:01:50;29.10;99.90
24645;DHT22;12780;45.502;9.146;2022-08-26T09:07:22;29.20;99.90
24645;DHT22;12780;45.502;9.146;2022-08-26T09:12:38;29.20;99.90
24645;DHT22;12780;45.502;9.146;2022-08-26T09:15:17;29.30;99.90
24645;DHT22;12780;45.502;9.146;2022-08-26T09:20:48;29.50;99.90
24645;DHT22;12780;45.502;9.146;2022-08-26T09:23:17;29.60;99.90
24645;DHT22;12780;45.502;9.146;2022-08-26T09:25:50;29.70;99.90
24645;DHT22;12780;45.502;9.146;2022-08-26T09:28:17;29.80;99.90
24645;DHT22;12780;45.502;9.146;2022-08-26T09:30:45;29.90;99.90
24645;DHT22;12780;45.502;9.146;2022-08-26T09:33:16;30.00;99.90
24645;DHT22;12780;45.502;9.146;2022-08-26T09:35:44;29.90;99.90
24645;DHT22;12780;45.502;9.146;2022-08-26T09:38:26;29.90;99.90
24645;DHT22;12780;45.502;9.146;2022-08-26T09:40:58;29.90;99.90
24645;DHT22;12780;45.502;9.146;2022-08-26T09:43:24;29.90;99.90
24645;DHT22;12780;45.502;9.146;2022-08-26T09:46:13;29.90;99.90
24645;DHT22;12780;45.502;9.146;2022-08-26T09:48:41;30.00;99.90
24645;DHT22;12780;45.502;9.146;2022-08-26T09:53:56;30.20;99.90
24645;DHT22;12780;45.502;9.146;2022-08-26T09:58:51;30.30;99.90
24645;DHT22;12780;45.502;9.146;2022-08-26T10:06:29;30.40;99.90
24645;DHT22;12780;45.502;9.146;2022-08-26T10:08:57;30.40;99.90
24645;DHT22;12780;45.502;9.146;2022-08-26T10:13:58;30.40;99.90
24645;DHT22;12780;45.502;9.146;2022-08-26T10:16:26;30.40;99.90
24645;DHT22;12780;45.502;9.146;2022-08-26T10:19:06;30.40;99.90
24645;DHT22;12780;45.502;9.146;2022-08-26T10:21:58;30.50;99.90
24645;DHT22;12780;45.502;9.146;2022-08-26T10:24:38;30.50;99.90
24645;DHT22;12780;45.502;9.146;2022-08-26T10:27:14;30.60;99.90
24645;DHT22;12780;45.502;9.146;2022-08-26T10:29:46;30.70;99.90
24645;DHT22;12780;45.502;9.146;2022-08-26T10:32:25;30.80;99.90
24645;DHT22;12780;45.502;9.146;2022-08-26T10:34:51;30.80;99.90
24645;DHT22;12780;45.502;9.146;2022-08-26T10:37:22;30.90;99.90
24645;DHT22;12780;45.502;9.146;2022-08-26T10:39:56;30.90;99.90
24645;DHT22;12780;45.502;9.146;2022-08-26T10:45:15;31.10;99.90
24645;DHT22;12780;45.502;9.146;2022-08-26T10:48:09;31.00;99.90
24645;DHT22;12780;45.502;9.146;2022-08-26T10:50:39;31.10;99.90
24645;DHT22;12780;45.502;9.146;2022-08-26T10:53:16;31.10;99.90
24645;DHT22;12780;45.502;9.146;2022-08-26T10:56:05;31.10;99.90
24645;DHT22;12780;45.502;9.146;2022-08-26T10:58:49;31.10;99.90
24645;DHT22;12780;45.502;9.146;2022-08-26T11:01:29;31.00;99.90
24645;DHT22;12780;45.502;9.146;2022-08-26T11:06:48;30.90;99.90
24645;DHT22;12780;45.502;9.146;2022-08-26T11:09:44;30.90;99.90
24645;DHT22;12780;45.502;9.146;2022-08-26T11:15:55;30.90;99.90
24645;DHT22;12780;45.502;9.146;2022-08-26T11:18:03;30.90;99.90
24645;DHT22;12780;45.502;9.146;2022-08-26T11:28:47;31.10;99.90
24645;DHT22;12780;45.502;9.146;2022-08-26T11:33:58;31.30;99.90
24645;DHT22;12780;45.502;9.146;2022-08-26T11:36:40;31.40;99.90
24645;DHT22;12780;45.502;9.146;2022-08-26T11:39:22;31.50;99.90
24645;DHT22;12780;45.502;9.146;2022-08-26T11:41:52;31.60;99.90
24645;DHT22;12780;45.502;9.146;2022-08-26T11:44:22;31.70;99.90
24645;DHT22;12780;45.502;9.146;2022-08-26T11:46:59;31.70;99.90
24645;DHT22;12780;45.502;9.146;2022-08-26T11:49:29;31.70;99.90
24645;DHT22;12780;45.502;9.146;2022-08-26T11:54:39;31.80;99.90
24645;DHT22;12780;45.502;9.146;2022-08-26T11:57:07;31.70;99.90
24645;DHT22;12780;45.502;9.146;2022-08-26T11:59:38;31.70;99.90
24645;DHT22;12780;45.502;9.146;2022-08-26T12:02:12;31.80;99.90
24645;DHT22;12780;45.502;9.146;2022-08-26T12:04:40;31.80;99.90
24645;DHT22;12780;45.502;9.146;2022-08-26T12:07:06;31.70;99.90
24645;DHT22;12780;45.502;9.146;2022-08-26T12:09:35;31.70;99.90
24645;DHT22;12780;45.502;9.146;2022-08-26T12:12:15;31.70;99.90
24645;DHT22;12780;45.502;9.146;2022-08-26T12:14:42;31.70;99.90
24645;DHT22;12780;45.502;9.146;2022-08-26T12:17:14;31.70;99.90
24645;DHT22;12780;45.502;9.146;2022-08-26T12:19:40;31.80;99.90
24645;DHT22;12780;45.502;9.146;2022-08-26T12:24:48;31.90;99.90
24645;DHT22;12780;45.502;9.146;2022-08-26T12:27:23;31.90;99.90
24645;DHT22;12780;45.502;9.146;2022-08-26T12:30:20;32.00;99.90
24645;DHT22;12780;45.502;9.146;2022-08-26T12:32:52;32.10;99.90
24645;DHT22;12780;45.502;9.146;2022-08-26T12:35:27;32.20;99.90
24645;DHT22;12780;45.502;9.146;2022-08-26T12:37:53;32.30;99.90
24645;DHT22;12780;45.502;9.146;2022-08-26T12:40:41;32.40;99.90
24645;DHT22;12780;45.502;9.146;2022-08-26T12:43:10;32.50;99.90
24645;DHT22;12780;45.502;9.146;2022-08-26T12:45:42;32.50;99.90
24645;DHT22;12780;45.502;9.146;2022-08-26T12:48:26;32.40;99.90
24645;DHT22;12780;45.502;9.146;2022-08-26T12:50:52;32.30;99.90
24645;DHT22;12780;45.502;9.146;2022-08-26T12:53:27;32.20;99.90
24645;DHT22;12780;45.502;9.146;2022-08-26T12:55:54;32.30;99.90
24645;DHT22;12780;45.502;9.146;2022-08-26T12:58:33;32.50;99.90
24645;DHT22;12780;45.502;9.146;2022-08-26T13:06:10;32.10;99.90
24645;DHT22;12780;45.502;9.146;2022-08-26T13:08:40;32.00;99.90
24645;DHT22;12780;45.502;9.146;2022-08-26T13:11:14;31.90;99.90
24645;DHT22;12780;45.502;9.146;2022-08-26T13:13:46;31.90;99.90
24645;DHT22;12780;45.502;9.146;2022-08-26T13:16:12;32.00;99.90
24645;DHT22;12780;45.502;9.146;2022-08-26T13:18:38;32.00;99.90
24645;DHT22;12780;45.502;9.146;2022-08-26T13:21:25;32.10;99.90
24645;DHT22;12780;45.502;9.146;2022-08-26T13:23:51;32.10;99.90
24645;DHT22;12780;45.502;9.146;2022-08-26T13:26:17;32.20;99.90
24645;DHT22;12780;45.502;9.146;2022-08-26T13:28:43;32.20;99.90
24645;DHT22;12780;45.502;9.146;2022-08-26T13:31:10;32.30;99.90
24645;DHT22;12780;45.502;9.146;2022-08-26T13:33:37;32.30;99.90
24645;DHT22;12780;45.502;9.146;2022-08-26T13:36:03;32.30;99.90
24645;DHT22;12780;45.502;9.146;2022-08-26T13:38:29;32.30;99.90
24645;DHT22;12780;45.502;9.146;2022-08-26T13:40:55;32.30;99.90
24645;DHT22;12780;45.502;9.146;2022-08-26T13:43:24;32.30;99.90
24645;DHT22;12780;45.502;9.146;2022-08-26T13:45:50;32.30;99.90
24645;DHT22;12780;45.502;9.146;2022-08-26T13:48:16;32.30;99.90
24645;DHT22;12780;45.502;9.146;2022-08-26T13:50:44;32.20;99.90
24645;DHT22;12780;45.502;9.146;2022-08-26T13:53:11;32.10;99.90
24645;DHT22;12780;45.502;9.146;2022-08-26T13:55:36;32.10;99.90
24645;DHT22;12780;45.502;9.146;2022-08-26T13:58:02;32.10;99.90
24645;DHT22;12780;45.502;9.146;2022-08-26T14:00:27;32.10;99.90
24645;DHT22;12780;45.502;9.146;2022-08-26T14:02:53;32.10;99.90
24645;DHT22;12780;45.502;9.146;2022-08-26T14:05:19;32.20;99.90
24645;DHT22;12780;45.502;9.146;2022-08-26T14:07:44;32.20;99.90
24645;DHT22;12780;45.502;9.146;2022-08-26T14:10:10;32.30;99.90
24645;DHT22;12780;45.502;9.146;2022-08-26T14:12:36;32.30;99.90
24645;DHT22;12780;45.502;9.146;2022-08-26T14:15:02;32.30;99.90
24645;DHT22;12780;45.502;9.146;2022-08-26T14:17:29;32.30;99.90
24645;DHT22;12780;45.502;9.146;2022-08-26T14:19:56;32.30;99.90
24645;DHT22;12780;45.502;9.146;2022-08-26T14:22:22;32.30;99.90
24645;DHT22;12780;45.502;9.146;2022-08-26T14:24:48;32.30;99.90
24645;DHT22;12780;45.502;9.146;2022-08-26T14:27:14;32.30;99.90
24645;DHT22;12780;45.502;9.146;2022-08-26T14:29:41;32.30;99.90
24645;DHT22;12780;45.502;9.146;2022-08-26T14:32:11;32.30;99.90
24645;DHT22;12780;45.502;9.146;2022-08-26T14:34:39;32.30;99.90
24645;DHT22;12780;45.502;9.146;2022-08-26T14:37:05;32.30;99.90
24645;DHT22;12780;45.502;9.146;2022-08-26T14:39:31;32.30;99.90
24645;DHT22;12780;45.502;9.146;2022-08-26T14:41:56;32.30;99.90
24645;DHT22;12780;45.502;9.146;2022-08-26T14:44:28;32.30;99.90
24645;DHT22;12780;45.502;9.146;2022-08-26T14:46:56;32.10;99.90
24645;DHT22;12780;45.502;9.146;2022-08-26T14:49:24;31.90;99.90
24645;DHT22;12780;45.502;9.146;2022-08-26T14:51:51;31.90;99.90
24645;DHT22;12780;45.502;9.146;2022-08-26T14:54:18;31.80;99.90
24645;DHT22;12780;45.502;9.146;2022-08-26T14:57:06;31.70;99.90
24645;DHT22;12780;45.502;9.146;2022-08-26T14:59:33;31.70;99.90
24645;DHT22;12780;45.502;9.146;2022-08-26T15:01:59;31.60;99.90
24645;DHT22;12780;45.502;9.146;2022-08-26T15:04:26;31.60;99.90
24645;DHT22;12780;45.502;9.146;2022-08-26T15:06:53;31.50;99.90
24645;DHT22;12780;45.502;9.146;2022-08-26T15:09:19;31.50;99.90
24645;DHT22;12780;45.502;9.146;2022-08-26T15:11:45;31.40;99.90
24645;DHT22;12780;45.502;9.146;2022-08-26T15:14:11;31.50;99.90
24645;DHT22;12780;45.502;9.146;2022-08-26T15:16:37;31.50;99.90
24645;DHT22;12780;45.502;9.146;2022-08-26T15:19:04;31.50;99.90
24645;DHT22;12780;45.502;9.146;2022-08-26T15:21:31;31.50;99.90
24645;DHT22;12780;45.502;9.146;2022-08-26T15:23:56;31.50;99.90
24645;DHT22;12780;45.502;9.146;2022-08-26T15:26:23;31.50;99.90
24645;DHT22;12780;45.502;9.146;2022-08-26T15:28:50;31.50;99.90
24645;DHT22;12780;45.502;9.146;2022-08-26T15:31:16;31.40;99.90
24645;DHT22;12780;45.502;9.146;2022-08-26T15:33:42;31.30;99.90
24645;DHT22;12780;45.502;9.146;2022-08-26T15:36:08;31.20;99.90
24645;DHT22;12780;45.502;9.146;2022-08-26T15:38:39;31.20;99.90
24645;DHT22;12780;45.502;9.146;2022-08-26T15:41:07;31.10;99.90
24645;DHT22;12780;45.502;9.146;2022-08-26T15:43:33;31.10;99.90
24645;DHT22;12780;45.502;9.146;2022-08-26T15:45:59;31.10;99.90
24645;DHT22;12780;45.502;9.146;2022-08-26T15:48:25;31.00;99.90
24645;DHT22;12780;45.502;9.146;2022-08-26T15:50:58;31.00;99.90
24645;DHT22;12780;45.502;9.146;2022-08-26T15:53:25;30.90;99.90
24645;DHT22;12780;45.502;9.146;2022-08-26T15:55:55;30.90;99.90
24645;DHT22;12780;45.502;9.146;2022-08-26T15:58:22;30.90;99.90
24645;DHT22;12780;45.502;9.146;2022-08-26T16:00:49;30.90;99.90
24645;DHT22;12780;45.502;9.146;2022-08-26T16:03:15;30.80;99.90
24645;DHT22;12780;45.502;9.146;2022-08-26T16:05:41;30.80;99.90
24645;DHT22;12780;45.502;9.146;2022-08-26T16:08:10;30.70;99.90
24645;DHT22;12780;45.502;9.146;2022-08-26T16:10:38;30.60;99.90
24645;DHT22;12780;45.502;9.146;2022-08-26T16:13:05;30.60;99.90
24645;DHT22;12780;45.502;9.146;2022-08-26T16:15:32;30.60;99.90
24645;DHT22;12780;45.502;9.146;2022-08-26T16:17:59;30.50;99.90
24645;DHT22;12780;45.502;9.146;2022-08-26T16:20:29;30.40;99.90
24645;DHT22;12780;45.502;9.146;2022-08-26T16:22:57;30.30;99.90
24645;DHT22;12780;45.502;9.146;2022-08-26T16:25:23;30.30;99.90
24645;DHT22;12780;45.502;9.146;2022-08-26T16:27:49;30.20;99.90
24645;DHT22;12780;45.502;9.146;2022-08-26T16:30:17;30.10;99.90
24645;DHT22;12780;45.502;9.146;2022-08-26T16:32:44;29.90;99.90
24645;DHT22;12780;45.502;9.146;2022-08-26T16:35:10;29.80;99.90